Time;durP1;ratioP1;P1;durP2;ratioP2;P2;SDS_P1;SDS_P2;PMS_P1;PMS_P2;Temp;Humidity;BMP_temperature;BMP_pressure;BME280_temperature;BME280_humidity;BME280_pressure;Samples;Min_cycle;Max_cycle;Signal;HPM_P1;HPM_P2
2022/05/15 00:02:08;;;;;;;7.07;0.80;;;;;;;;;;5055591;28;20670;-69
2022/05/15 00:04:35;;;;;;;3.22;0.70;;;;;;;;;;5055847;28;20041;-67
2022/05/15 00:07:02;;;;;;;2.13;0.70;;;;;;;;;;5055588;28;20041;-67
2022/05/15 00:09:29;;;;;;;2.95;0.70;;;;;;;;;;5035074;28;20127;-67
2022/05/15 00:11:56;;;;;;;4.50;1.00;;;;;;;;;;5053763;28;20051;-67
2022/05/15 00:14:23;;;;;;;2.15;0.80;;;;;;;;;;5053626;28;20090;-67
2022/05/15 00:16:50;;;;;;;2.90;0.50;;;;;;;;;;5049553;28;20050;-66
2022/05/15 00:19:16;;;;;;;2.42;0.60;;;;;;;;;;5056011;28;20481;-67
2022/05/15 00:21:43;;;;;;;1.85;0.50;;;;;;;;;;5052758;28;20087;-66
2022/05/15 00:24:10;;;;;;;1.75;0.50;;;;;;;;;;5053487;28;20303;-68
2022/05/15 00:26:37;;;;;;;2.90;0.80;;;;;;;;;;5052746;28;20039;-68
2022/05/15 00:29:04;;;;;;;2.85;0.80;;;;;;;;;;5054433;28;20028;-68
2022/05/15 00:31:30;;;;;;;2.13;0.70;;;;;;;;;;5051806;28;20045;-67
2022/05/15 00:33:57;;;;;;;2.85;0.80;;;;;;;;;;5052707;28;20039;-67
2022/05/15 00:36:24;;;;;;;6.00;0.80;;;;;;;;;;5053732;28;20037;-67
2022/05/15 00:38:51;;;;;;;6.00;1.00;;;;;;;;;;5055450;28;20040;-63
2022/05/15 00:41:17;;;;;;;3.25;0.68;;;;;;;;;;5054207;28;20083;-61
2022/05/15 00:43:48;;;;;;;2.15;0.60;;;;;;;;;;5054801;28;20053;-62
2022/05/15 00:46:34;;;;;;;3.35;0.60;;;;;;;;;;5054595;28;20059;-63
2022/05/15 00:49:02;;;;;;;2.80;0.80;;;;;;;;;;5054874;28;20045;-64
2022/05/15 00:51:29;;;;;;;2.40;0.70;;;;;;;;;;5052442;28;20040;-65
2022/05/15 00:54:00;;;;;;;2.10;0.70;;;;;;;;;;5054279;28;20036;-61
2022/05/15 00:56:29;;;;;;;2.80;0.50;;;;;;;;;;5052754;28;20045;-61
2022/05/15 00:59:00;;;;;;;1.85;0.50;;;;;;;;;;5036743;28;20489;-62
2022/05/15 01:01:27;;;;;;;2.75;0.52;;;;;;;;;;5052584;28;20052;-61
2022/05/15 01:03:54;;;;;;;2.25;0.55;;;;;;;;;;5054045;28;20036;-62
2022/05/15 01:06:21;;;;;;;3.35;0.68;;;;;;;;;;5051994;28;20124;-60
2022/05/15 01:08:48;;;;;;;5.80;0.65;;;;;;;;;;5051826;28;20033;-60
2022/05/15 01:11:18;;;;;;;3.50;0.57;;;;;;;;;;5053068;28;20040;-60
2022/05/15 01:13:45;;;;;;;3.72;0.60;;;;;;;;;;5050250;28;20500;-62
2022/05/15 01:16:13;;;;;;;2.35;0.70;;;;;;;;;;5050695;28;20051;-63
2022/05/15 01:18:40;;;;;;;3.47;0.70;;;;;;;;;;5031465;28;20040;-68
2022/05/15 01:21:36;;;;;;;4.78;1.10;;;;;;;;;;5053071;28;20084;-68
2022/05/15 01:24:04;;;;;;;2.30;0.70;;;;;;;;;;5040641;28;20039;-67
2022/05/15 01:26:31;;;;;;;2.38;0.75;;;;;;;;;;5051109;28;20029;-67
2022/05/15 01:28:58;;;;;;;4.70;0.70;;;;;;;;;;5052016;28;20182;-67
2022/05/15 01:31:25;;;;;;;3.13;0.75;;;;;;;;;;5049740;28;20028;-67
2022/05/15 01:33:52;;;;;;;2.92;0.70;;;;;;;;;;5052261;28;20040;-67
2022/05/15 01:36:20;;;;;;;5.03;0.70;;;;;;;;;;5051420;28;20033;-67
2022/05/15 01:38:47;;;;;;;2.75;0.75;;;;;;;;;;5050800;28;20045;-67
2022/05/15 01:41:16;;;;;;;3.25;0.70;;;;;;;;;;5051929;28;20048;-68
2022/05/15 01:43:44;;;;;;;2.53;0.80;;;;;;;;;;5034578;28;20048;-67
2022/05/15 01:46:11;;;;;;;6.07;1.00;;;;;;;;;;5052640;28;20140;-66
2022/05/15 01:48:38;;;;;;;1.98;0.57;;;;;;;;;;5050549;28;20040;-68
2022/05/15 01:51:05;;;;;;;3.33;0.65;;;;;;;;;;5051828;28;20045;-66
2022/05/15 01:53:32;;;;;;;1.83;0.50;;;;;;;;;;5049843;28;20116;-67
2022/05/15 01:55:59;;;;;;;1.45;0.43;;;;;;;;;;5052476;28;20040;-64
2022/05/15 01:58:25;;;;;;;3.65;0.70;;;;;;;;;;5050710;28;20748;-66
2022/05/15 02:00:52;;;;;;;2.58;0.77;;;;;;;;;;5052100;28;20068;-67
2022/05/15 02:03:19;;;;;;;4.25;0.70;;;;;;;;;;5049749;28;20040;-67
2022/05/15 02:05:46;;;;;;;2.78;0.70;;;;;;;;;;5049126;28;20106;-72
2022/05/15 02:08:12;;;;;;;2.92;0.60;;;;;;;;;;5051254;28;20040;-67
2022/05/15 02:10:39;;;;;;;6.07;0.68;;;;;;;;;;5051113;28;20095;-68
2022/05/15 02:13:06;;;;;;;3.40;0.80;;;;;;;;;;5050875;28;20041;-67
2022/05/15 02:15:32;;;;;;;3.47;0.63;;;;;;;;;;5050356;28;20037;-68
2022/05/15 02:17:59;;;;;;;1.30;0.47;;;;;;;;;;5050904;28;20403;-66
2022/05/15 02:20:26;;;;;;;2.10;0.65;;;;;;;;;;5049979;28;20604;-66
2022/05/15 02:22:53;;;;;;;2.60;0.75;;;;;;;;;;5051411;28;21952;-66
2022/05/15 02:25:19;;;;;;;1.65;0.50;;;;;;;;;;5050844;28;20569;-67
2022/05/15 02:27:46;;;;;;;3.58;0.82;;;;;;;;;;5050293;28;20119;-66
2022/05/15 02:30:13;;;;;;;2.50;0.70;;;;;;;;;;5051541;28;20037;-67
2022/05/15 02:32:40;;;;;;;1.85;0.63;;;;;;;;;;5049785;28;20063;-66
2022/05/15 02:35:08;;;;;;;2.35;0.70;;;;;;;;;;5050498;28;20121;-66
2022/05/15 02:37:34;;;;;;;1.90;0.60;;;;;;;;;;5050036;28;20041;-66
2022/05/15 02:40:01;;;;;;;2.05;0.60;;;;;;;;;;5050776;28;20037;-67
2022/05/15 02:42:28;;;;;;;2.10;0.60;;;;;;;;;;5050679;28;20037;-67
2022/05/15 02:44:55;;;;;;;2.20;0.70;;;;;;;;;;5051491;28;20035;-67
2022/05/15 02:47:25;;;;;;;1.85;0.60;;;;;;;;;;5051447;28;20060;-67
2022/05/15 02:52:40;;;;;;;2.88;0.57;;;;;;;;;;5053225;28;20717;-66
2022/05/15 02:55:07;;;;;;;1.83;0.60;;;;;;;;;;5056080;28;20076;-66
2022/05/15 02:57:33;;;;;;;2.00;0.70;;;;;;;;;;5056395;28;20471;-69
2022/05/15 03:00:24;;;;;;;2.10;0.70;;;;;;;;;;5053349;28;20072;-66
2022/05/15 03:02:51;;;;;;;2.95;0.60;;;;;;;;;;5051284;28;20089;-67
2022/05/15 03:05:18;;;;;;;1.88;0.60;;;;;;;;;;5052016;28;20039;-67
2022/05/15 03:07:45;;;;;;;4.97;0.65;;;;;;;;;;5051749;28;20071;-66
2022/05/15 03:10:13;;;;;;;1.75;0.60;;;;;;;;;;5035592;28;20957;-66
2022/05/15 03:12:40;;;;;;;2.25;0.60;;;;;;;;;;5051904;28;20044;-66
2022/05/15 03:15:08;;;;;;;2.17;0.70;;;;;;;;;;5052117;28;20076;-66
2022/05/15 03:17:35;;;;;;;3.28;0.90;;;;;;;;;;5050831;28;20491;-66
2022/05/15 03:20:02;;;;;;;3.20;0.60;;;;;;;;;;5058109;28;20746;-66
2022/05/15 03:22:29;;;;;;;2.10;0.70;;;;;;;;;;5052929;28;20036;-66
2022/05/15 03:24:56;;;;;;;1.88;0.60;;;;;;;;;;5049886;28;20036;-66
2022/05/15 03:27:22;;;;;;;2.58;0.70;;;;;;;;;;5050936;28;20421;-66
2022/05/15 03:29:49;;;;;;;4.40;0.63;;;;;;;;;;5051898;28;21843;-66
2022/05/15 03:32:16;;;;;;;2.58;0.63;;;;;;;;;;5030456;28;20047;-66
2022/05/15 03:34:43;;;;;;;2.30;0.65;;;;;;;;;;5050288;28;20036;-67
2022/05/15 03:37:09;;;;;;;2.58;0.50;;;;;;;;;;5051231;28;20052;-66
2022/05/15 03:39:39;;;;;;;1.95;0.65;;;;;;;;;;5055119;28;20488;-65
2022/05/15 03:42:06;;;;;;;2.97;0.70;;;;;;;;;;5053435;28;20060;-66
2022/05/15 03:44:33;;;;;;;2.20;0.70;;;;;;;;;;5052668;28;20123;-66
2022/05/15 03:47:02;;;;;;;2.22;0.70;;;;;;;;;;5051744;28;20160;-66
2022/05/15 03:49:29;;;;;;;2.70;0.82;;;;;;;;;;5052109;28;20032;-66
2022/05/15 03:51:55;;;;;;;2.17;0.70;;;;;;;;;;5051879;28;20028;-67
2022/05/15 03:54:22;;;;;;;2.63;0.70;;;;;;;;;;5052258;28;20074;-66
2022/05/15 03:56:52;;;;;;;4.00;0.77;;;;;;;;;;5053504;28;20082;-66
2022/05/15 03:59:21;;;;;;;5.28;0.65;;;;;;;;;;5054349;28;20556;-66
2022/05/15 04:01:48;;;;;;;3.83;0.70;;;;;;;;;;5052035;28;20052;-66
2022/05/15 04:04:14;;;;;;;2.15;0.63;;;;;;;;;;5052712;28;20058;-67
2022/05/15 04:06:41;;;;;;;6.35;0.90;;;;;;;;;;5053859;28;20071;-67
2022/05/15 04:09:08;;;;;;;2.08;0.60;;;;;;;;;;5053782;28;20032;-67
2022/05/15 04:11:35;;;;;;;2.22;0.60;;;;;;;;;;5051780;28;20147;-67
2022/05/15 04:14:02;;;;;;;2.25;0.70;;;;;;;;;;5055018;28;20575;-67
2022/05/15 04:16:29;;;;;;;2.08;0.70;;;;;;;;;;5052791;28;20109;-67
2022/05/15 04:18:55;;;;;;;2.63;0.75;;;;;;;;;;5054731;28;20037;-67
2022/05/15 04:21:22;;;;;;;2.60;0.75;;;;;;;;;;5051856;28;20589;-67
2022/05/15 04:23:49;;;;;;;1.60;0.50;;;;;;;;;;5054614;28;20133;-67
2022/05/15 04:26:16;;;;;;;3.03;0.88;;;;;;;;;;5053381;28;20048;-66
2022/05/15 04:28:43;;;;;;;4.95;0.90;;;;;;;;;;5052516;28;20039;-65
2022/05/15 04:31:09;;;;;;;4.38;0.70;;;;;;;;;;5051760;28;20587;-66
2022/05/15 04:33:36;;;;;;;2.85;0.75;;;;;;;;;;5052920;28;20040;-66
2022/05/15 04:36:03;;;;;;;2.30;0.60;;;;;;;;;;5039915;28;20675;-66
2022/05/15 04:38:30;;;;;;;1.85;0.60;;;;;;;;;;5052453;28;20032;-66
2022/05/15 04:40:57;;;;;;;2.10;0.60;;;;;;;;;;5053484;28;20060;-67
2022/05/15 04:43:24;;;;;;;1.98;0.60;;;;;;;;;;5035825;28;20091;-67
2022/05/15 04:45:50;;;;;;;2.53;0.70;;;;;;;;;;5052599;28;20048;-67
2022/05/15 04:48:17;;;;;;;1.77;0.52;;;;;;;;;;5052495;28;20047;-67
2022/05/15 04:50:44;;;;;;;2.65;0.60;;;;;;;;;;5051237;28;20371;-67
2022/05/15 04:53:10;;;;;;;1.75;0.60;;;;;;;;;;5051271;28;20470;-67
2022/05/15 04:55:37;;;;;;;1.75;0.70;;;;;;;;;;5035485;28;20114;-67
2022/05/15 04:58:04;;;;;;;2.50;0.70;;;;;;;;;;5053307;28;20032;-67
2022/05/15 05:00:31;;;;;;;2.85;0.55;;;;;;;;;;5049685;28;20106;-68
2022/05/15 05:02:58;;;;;;;2.25;0.63;;;;;;;;;;5051440;28;20504;-66
2022/05/15 05:05:25;;;;;;;2.00;0.65;;;;;;;;;;5052277;28;20047;-66
2022/05/15 05:07:52;;;;;;;1.48;0.50;;;;;;;;;;5053068;28;20064;-67
2022/05/15 05:10:19;;;;;;;1.45;0.50;;;;;;;;;;5054379;28;20040;-67
2022/05/15 05:12:45;;;;;;;2.67;0.73;;;;;;;;;;5051079;28;20041;-67
2022/05/15 05:15:12;;;;;;;2.40;0.80;;;;;;;;;;5051122;28;20045;-67
2022/05/15 05:17:40;;;;;;;2.10;0.60;;;;;;;;;;5051377;28;20668;-68
2022/05/15 05:20:07;;;;;;;4.82;0.93;;;;;;;;;;5052457;28;20097;-66
2022/05/15 05:22:34;;;;;;;4.15;0.70;;;;;;;;;;5051394;28;20826;-66
2022/05/15 05:25:00;;;;;;;1.17;0.40;;;;;;;;;;5048111;28;20040;-67
2022/05/15 05:27:27;;;;;;;1.65;0.52;;;;;;;;;;5050842;28;20045;-67
2022/05/15 05:29:54;;;;;;;2.50;0.68;;;;;;;;;;5052459;28;20029;-66
2022/05/15 05:32:21;;;;;;;2.55;0.70;;;;;;;;;;5049480;28;20036;-66
2022/05/15 05:34:47;;;;;;;1.85;0.80;;;;;;;;;;5051922;28;20452;-66
2022/05/15 05:37:17;;;;;;;1.67;0.50;;;;;;;;;;5048708;28;20119;-66
2022/05/15 05:39:44;;;;;;;1.98;0.57;;;;;;;;;;5051803;28;20044;-66
2022/05/15 05:42:11;;;;;;;1.40;0.50;;;;;;;;;;5051578;28;20063;-66
2022/05/15 05:44:38;;;;;;;1.60;0.50;;;;;;;;;;5051286;28;20956;-66
2022/05/15 05:47:05;;;;;;;2.97;0.73;;;;;;;;;;5051524;28;20044;-66
2022/05/15 05:49:32;;;;;;;2.70;0.80;;;;;;;;;;5050108;28;20059;-67
2022/05/15 05:51:59;;;;;;;1.70;0.52;;;;;;;;;;5050243;28;20820;-67
2022/05/15 05:54:26;;;;;;;2.50;0.50;;;;;;;;;;5050673;28;20078;-66
2022/05/15 05:56:52;;;;;;;2.20;0.60;;;;;;;;;;5051769;28;20033;-66
2022/05/15 05:59:22;;;;;;;2.20;0.68;;;;;;;;;;5053087;28;20076;-66
2022/05/15 06:01:49;;;;;;;1.52;0.50;;;;;;;;;;5052259;28;20044;-66
2022/05/15 06:07:01;;;;;;;1.90;0.70;;;;;;;;;;5051632;28;20052;-66
2022/05/15 06:09:27;;;;;;;2.13;0.60;;;;;;;;;;5051552;28;20049;-65
2022/05/15 06:11:54;;;;;;;1.63;0.60;;;;;;;;;;5051407;28;20040;-65
2022/05/15 06:14:20;;;;;;;1.90;0.60;;;;;;;;;;5050516;28;20035;-65
2022/05/15 06:16:47;;;;;;;2.30;0.70;;;;;;;;;;5051368;28;20044;-65
2022/05/15 06:19:14;;;;;;;2.65;0.60;;;;;;;;;;5032190;28;20489;-65
2022/05/15 06:21:41;;;;;;;1.70;0.50;;;;;;;;;;5050172;28;20055;-65
2022/05/15 06:24:08;;;;;;;1.48;0.55;;;;;;;;;;5049663;28;20512;-65
2022/05/15 06:26:34;;;;;;;1.83;0.60;;;;;;;;;;5053881;28;20047;-66
2022/05/15 06:29:08;;;;;;;2.88;0.73;;;;;;;;;;5054206;28;20040;-65
2022/05/15 06:31:35;;;;;;;1.80;0.60;;;;;;;;;;5053059;28;20033;-66
2022/05/15 06:34:13;;;;;;;1.88;0.57;;;;;;;;;;5036735;28;20072;-65
2022/05/15 06:36:40;;;;;;;6.47;0.80;;;;;;;;;;5016610;28;20306;-66
2022/05/15 06:39:07;;;;;;;2.42;0.60;;;;;;;;;;5017715;28;20606;-65
2022/05/15 06:41:34;;;;;;;1.30;0.50;;;;;;;;;;5017110;28;20533;-65
2022/05/15 06:44:01;;;;;;;2.17;0.70;;;;;;;;;;5018340;28;20065;-65
2022/05/15 06:46:28;;;;;;;2.45;0.80;;;;;;;;;;5018119;28;20096;-65
2022/05/15 06:48:54;;;;;;;2.42;0.65;;;;;;;;;;5019309;28;20049;-65
2022/05/15 06:51:21;;;;;;;3.97;0.90;;;;;;;;;;5015679;28;20140;-67
2022/05/15 06:53:48;;;;;;;2.55;0.75;;;;;;;;;;5017097;28;20480;-67
2022/05/15 06:59:02;;;;;;;2.72;0.70;;;;;;;;;;5015315;28;20099;-66
2022/05/15 07:01:29;;;;;;;9.75;1.13;;;;;;;;;;5014733;28;21029;-65
2022/05/15 07:03:55;;;;;;;4.18;0.70;;;;;;;;;;5015022;28;20120;-65
2022/05/15 07:06:22;;;;;;;2.50;0.63;;;;;;;;;;5015470;28;20506;-65
2022/05/15 07:08:49;;;;;;;2.50;0.75;;;;;;;;;;5053591;28;20037;-65
2022/05/15 07:11:16;;;;;;;2.00;0.70;;;;;;;;;;5054282;28;20095;-64
2022/05/15 07:13:43;;;;;;;1.27;0.50;;;;;;;;;;5053179;28;20043;-65
2022/05/15 07:16:11;;;;;;;2.08;0.60;;;;;;;;;;5054558;28;20064;-64
2022/05/15 07:18:38;;;;;;;1.70;0.63;;;;;;;;;;5050571;28;20029;-64
2022/05/15 07:21:05;;;;;;;2.47;0.60;;;;;;;;;;5054558;28;20048;-64
2022/05/15 07:23:32;;;;;;;2.50;0.68;;;;;;;;;;5053922;28;20044;-65
2022/05/15 07:25:59;;;;;;;1.48;0.50;;;;;;;;;;5052450;28;20166;-65
2022/05/15 07:28:25;;;;;;;2.55;0.60;;;;;;;;;;5055231;28;20083;-65
2022/05/15 07:30:52;;;;;;;3.45;0.60;;;;;;;;;;5056153;28;20060;-64
2022/05/15 07:33:23;;;;;;;2.55;0.70;;;;;;;;;;5055706;28;20045;-63
2022/05/15 07:35:49;;;;;;;2.35;0.70;;;;;;;;;;5056353;28;20144;-65
2022/05/15 07:38:17;;;;;;;1.60;0.57;;;;;;;;;;5056728;28;20067;-66
2022/05/15 07:40:44;;;;;;;2.60;0.70;;;;;;;;;;5036532;28;20056;-65
2022/05/15 07:43:12;;;;;;;3.67;0.85;;;;;;;;;;5044895;28;20481;-66
2022/05/15 07:45:39;;;;;;;2.20;0.65;;;;;;;;;;5052668;28;20378;-66
2022/05/15 07:48:06;;;;;;;1.77;0.60;;;;;;;;;;5053596;28;20465;-66
2022/05/15 07:50:33;;;;;;;1.80;0.52;;;;;;;;;;5052924;28;20041;-66
2022/05/15 07:53:00;;;;;;;2.38;0.60;;;;;;;;;;5053500;28;20044;-65
2022/05/15 07:55:27;;;;;;;2.20;0.65;;;;;;;;;;5053082;28;20078;-65
2022/05/15 07:57:53;;;;;;;1.55;0.50;;;;;;;;;;5053743;28;20603;-65
2022/05/15 08:00:20;;;;;;;4.65;0.82;;;;;;;;;;5052702;28;20381;-65
2022/05/15 08:02:47;;;;;;;1.58;0.57;;;;;;;;;;5052855;28;22114;-65
2022/05/15 08:08:02;;;;;;;2.08;0.55;;;;;;;;;;5054280;28;20086;-65
2022/05/15 08:10:29;;;;;;;2.28;0.75;;;;;;;;;;5053467;28;20041;-65
2022/05/15 08:12:56;;;;;;;1.95;0.60;;;;;;;;;;5055448;28;20041;-65
2022/05/15 08:15:23;;;;;;;2.03;0.63;;;;;;;;;;5052306;28;20048;-65
2022/05/15 08:17:51;;;;;;;1.75;0.60;;;;;;;;;;5053728;28;20033;-64
2022/05/15 08:25:48;;;;;;;1.77;0.60;;;;;;;;;;5052794;28;20043;-64
2022/05/15 08:28:15;;;;;;;2.80;0.70;;;;;;;;;;5055440;28;20028;-64
2022/05/15 08:30:42;;;;;;;4.25;0.88;;;;;;;;;;5053953;28;20863;-64
2022/05/15 08:33:11;;;;;;;2.42;0.70;;;;;;;;;;5054341;28;20521;-64
2022/05/15 08:35:38;;;;;;;2.40;0.70;;;;;;;;;;5053087;28;20622;-64
2022/05/15 08:38:05;;;;;;;2.00;0.60;;;;;;;;;;5055377;28;20500;-64
2022/05/15 08:40:38;;;;;;;2.15;0.70;;;;;;;;;;5054036;28;20071;-64
2022/05/15 08:43:04;;;;;;;10.18;1.05;;;;;;;;;;5053696;28;20037;-65
2022/05/15 08:45:33;;;;;;;1.55;0.57;;;;;;;;;;5051900;28;20075;-65
2022/05/15 08:48:05;;;;;;;1.85;0.70;;;;;;;;;;5052100;28;20056;-65
2022/05/15 08:50:37;;;;;;;2.25;0.70;;;;;;;;;;5051910;28;20250;-66
2022/05/15 08:53:14;;;;;;;2.10;0.70;;;;;;;;;;5053209;28;20036;-65
2022/05/15 08:55:47;;;;;;;2.70;0.70;;;;;;;;;;5052269;28;20113;-65
2022/05/15 08:58:14;;;;;;;6.68;0.70;;;;;;;;;;5052530;28;20036;-65
2022/05/15 09:00:46;;;;;;;5.70;0.70;;;;;;;;;;5051755;28;20040;-65
2022/05/15 09:03:16;;;;;;;2.63;0.70;;;;;;;;;;5051770;28;20951;-65
2022/05/15 09:06:01;;;;;;;2.30;0.68;;;;;;;;;;5048960;28;20040;-65
2022/05/15 09:08:40;;;;;;;1.63;0.60;;;;;;;;;;5050744;28;20089;-65
2022/05/15 09:11:09;;;;;;;2.22;0.70;;;;;;;;;;5053429;28;20457;-65
2022/05/15 09:13:38;;;;;;;2.97;0.88;;;;;;;;;;5051692;28;21984;-65
2022/05/15 09:16:06;;;;;;;2.50;0.60;;;;;;;;;;5054352;28;20044;-64
2022/05/15 09:18:37;;;;;;;2.30;0.65;;;;;;;;;;5054541;28;20039;-65
2022/05/15 09:21:15;;;;;;;2.20;0.70;;;;;;;;;;5054353;28;20047;-66
2022/05/15 09:23:43;;;;;;;1.38;0.60;;;;;;;;;;5051936;28;20041;-64
2022/05/15 09:26:12;;;;;;;1.67;0.60;;;;;;;;;;5039830;28;20042;-64
2022/05/15 09:28:44;;;;;;;2.22;0.65;;;;;;;;;;5053433;28;20045;-65
2022/05/15 09:31:21;;;;;;;3.58;0.88;;;;;;;;;;5051269;28;20044;-65
2022/05/15 09:33:50;;;;;;;2.00;0.60;;;;;;;;;;5054112;28;20048;-64
2022/05/15 09:36:22;;;;;;;1.58;0.60;;;;;;;;;;5054465;28;20045;-64
2022/05/15 09:38:50;;;;;;;2.00;0.60;;;;;;;;;;5054364;28;20041;-64
2022/05/15 09:44:35;;;;;;;2.00;0.60;;;;;;;;;;4992437;28;20046;-64
2022/05/15 09:47:22;;;;;;;3.33;0.80;;;;;;;;;;4990754;28;20073;-64
2022/05/15 09:49:49;;;;;;;1.90;0.57;;;;;;;;;;5019455;28;20143;-65
2022/05/15 09:52:21;;;;;;;2.20;0.60;;;;;;;;;;5050883;28;20066;-65
2022/05/15 09:54:50;;;;;;;1.75;0.52;;;;;;;;;;5052842;28;20104;-65
2022/05/15 09:57:19;;;;;;;2.10;0.70;;;;;;;;;;5054020;28;20040;-64
2022/05/15 10:00:05;;;;;;;3.13;0.77;;;;;;;;;;5035142;28;20036;-63
2022/05/15 10:02:46;;;;;;;2.35;0.70;;;;;;;;;;5050585;28;20064;-64
2022/05/15 10:05:16;;;;;;;2.05;0.70;;;;;;;;;;5052491;28;20037;-63
2022/05/15 10:07:50;;;;;;;2.80;0.90;;;;;;;;;;5032270;28;20568;-64
2022/05/15 10:10:16;;;;;;;;;;;;;;;;;;5051765;28;20040;-65
2022/05/15 10:12:44;;;;;;;2.80;0.75;;;;;;;;;;5051125;28;19919;-65
2022/05/15 10:15:11;;;;;;;3.75;0.80;;;;;;;;;;5051606;28;20611;-65
2022/05/15 10:17:42;;;;;;;2.47;0.60;;;;;;;;;;5050865;28;20039;-65
2022/05/15 10:20:22;;;;;;;2.75;0.73;;;;;;;;;;5051688;28;20037;-64
2022/05/15 10:22:58;;;;;;;6.45;2.85;;;;;;;;;;5033180;28;20103;-64
2022/05/15 10:25:37;;;;;;;2.40;0.80;;;;;;;;;;5052101;28;20041;-65
2022/05/15 10:28:09;;;;;;;2.53;0.77;;;;;;;;;;5050030;28;20037;-64
2022/05/15 10:30:49;;;;;;;2.55;0.80;;;;;;;;;;5051330;28;20052;-64
2022/05/15 10:33:18;;;;;;;2.10;0.70;;;;;;;;;;5052884;28;20044;-64
2022/05/15 10:35:51;;;;;;;1.95;0.73;;;;;;;;;;5051981;28;20788;-63
2022/05/15 10:38:25;;;;;;;3.03;0.75;;;;;;;;;;5051256;28;20047;-64
2022/05/15 10:40:58;;;;;;;3.85;0.80;;;;;;;;;;5049631;28;20445;-63
2022/05/15 10:43:25;;;;;;;2.10;0.70;;;;;;;;;;5050145;28;20110;-64
2022/05/15 10:46:27;;;;;;;2.78;0.70;;;;;;;;;;5051319;28;20125;-64
2022/05/15 10:49:14;;;;;;;3.53;0.70;;;;;;;;;;4984911;28;20065;-63
2022/05/15 10:51:43;;;;;;;2.60;0.88;;;;;;;;;;5018327;28;20044;-63
2022/05/15 10:59:49;;;;;;;4.03;0.68;;;;;;;;;;5030929;28;20060;-62
2022/05/15 11:02:19;;;;;;;2.80;0.70;;;;;;;;;;5030726;28;20163;-63
2022/05/15 11:05:04;;;;;;;2.30;0.70;;;;;;;;;;5030248;28;20440;-63
2022/05/15 11:07:43;;;;;;;5.00;0.80;;;;;;;;;;5037665;28;20068;-63
2022/05/15 11:10:13;;;;;;;2.08;0.80;;;;;;;;;;5037745;28;20032;-63
2022/05/15 11:12:51;;;;;;;7.22;0.93;;;;;;;;;;5052595;28;20162;-63
2022/05/15 11:15:37;;;;;;;2.60;0.80;;;;;;;;;;5035995;28;20552;-65
2022/05/15 11:18:11;;;;;;;2.85;0.90;;;;;;;;;;5037107;28;20040;-64
2022/05/15 11:20:41;;;;;;;2.40;0.70;;;;;;;;;;5052964;28;20187;-63
2022/05/15 11:23:14;;;;;;;2.83;0.75;;;;;;;;;;5054746;28;20047;-64
2022/05/15 11:25:47;;;;;;;2.25;0.65;;;;;;;;;;5054102;28;20614;-63
2022/05/15 11:28:34;;;;;;;2.38;0.70;;;;;;;;;;5058011;28;20044;-65
2022/05/15 11:31:09;;;;;;;2.75;0.80;;;;;;;;;;5052852;28;20056;-66
2022/05/15 11:33:45;;;;;;;3.65;0.90;;;;;;;;;;5054520;28;20443;-64
2022/05/15 11:36:13;;;;;;;2.60;1.00;;;;;;;;;;5056435;28;20550;-64
2022/05/15 11:39:02;;;;;;;2.47;0.80;;;;;;;;;;5056169;28;20041;-64
2022/05/15 11:41:35;;;;;;;3.25;0.90;;;;;;;;;;5042850;28;20587;-64
2022/05/15 11:44:07;;;;;;;4.82;0.75;;;;;;;;;;5058514;28;20040;-64
2022/05/15 11:46:51;;;;;;;3.40;0.82;;;;;;;;;;5046505;28;20049;-64
2022/05/15 11:49:23;;;;;;;2.80;0.80;;;;;;;;;;5035486;28;20069;-64
2022/05/15 11:52:23;;;;;;;1.88;0.55;;;;;;;;;;5026644;28;20076;-64
2022/05/15 11:54:53;;;;;;;5.70;0.90;;;;;;;;;;5034328;28;20406;-64
2022/05/15 11:57:51;;;;;;;4.07;0.88;;;;;;;;;;5031972;28;20079;-63
2022/05/15 12:00:23;;;;;;;4.45;0.80;;;;;;;;;;5010361;28;20417;-63
2022/05/15 12:02:57;;;;;;;3.10;1.02;;;;;;;;;;5025284;28;20061;-65
2022/05/15 12:05:32;;;;;;;5.07;1.25;;;;;;;;;;5032496;28;20347;-64
2022/05/15 12:08:07;;;;;;;3.58;1.10;;;;;;;;;;5016551;28;20132;-64
2022/05/15 12:10:33;;;;;;;3.53;1.15;;;;;;;;;;5031712;28;20073;-64
2022/05/15 12:13:11;;;;;;;4.28;1.00;;;;;;;;;;5034115;28;20053;-64
2022/05/15 12:15:45;;;;;;;2.40;0.80;;;;;;;;;;5034411;28;20037;-65
2022/05/15 12:18:12;;;;;;;3.70;0.80;;;;;;;;;;5033009;28;20095;-64
2022/05/15 12:20:44;;;;;;;2.85;0.77;;;;;;;;;;5031871;28;20056;-63
2022/05/15 12:23:13;;;;;;;2.37;0.80;;;;;;;;;;5032012;28;20135;-63
2022/05/15 12:25:52;;;;;;;2.30;0.80;;;;;;;;;;5023268;28;20045;-63
2022/05/15 12:31:15;;;;;;;3.53;1.02;;;;;;;;;;5032053;28;20079;-64
2022/05/15 12:33:42;;;;;;;3.30;0.90;;;;;;;;;;5032173;28;20053;-64
2022/05/15 12:36:35;;;;;;;2.97;0.82;;;;;;;;;;5033378;28;20048;-63
2022/05/15 12:39:02;;;;;;;2.63;0.73;;;;;;;;;;5030456;28;20045;-63
2022/05/15 12:41:37;;;;;;;2.47;0.68;;;;;;;;;;5030882;28;20044;-64
2022/05/15 12:44:08;;;;;;;2.30;0.80;;;;;;;;;;5032846;28;20045;-64
2022/05/15 12:46:40;;;;;;;6.75;0.90;;;;;;;;;;5044114;28;20521;-63
2022/05/15 12:49:07;;;;;;;2.75;0.93;;;;;;;;;;5049375;28;20095;-64
2022/05/15 12:51:41;;;;;;;3.63;1.15;;;;;;;;;;5051900;28;20568;-64
2022/05/15 12:54:22;;;;;;;2.17;0.73;;;;;;;;;;5052133;28;20128;-64
2022/05/15 12:56:58;;;;;;;3.03;0.90;;;;;;;;;;5051585;28;20133;-63
2022/05/15 12:59:26;;;;;;;3.35;0.70;;;;;;;;;;5051840;28;20048;-63
2022/05/15 13:01:53;;;;;;;3.03;0.93;;;;;;;;;;5051477;28;20032;-63
2022/05/15 13:04:23;;;;;;;2.42;0.80;;;;;;;;;;5052742;28;20044;-63
2022/05/15 13:06:59;;;;;;;2.60;0.80;;;;;;;;;;5052740;28;20048;-63
2022/05/15 13:09:28;;;;;;;3.75;0.70;;;;;;;;;;5051876;28;20460;-63
2022/05/15 13:11:57;;;;;;;2.78;0.88;;;;;;;;;;5051034;28;20052;-63
2022/05/15 13:14:33;;;;;;;3.70;0.77;;;;;;;;;;5050233;28;20052;-63
2022/05/15 13:17:00;;;;;;;5.78;1.00;;;;;;;;;;5052171;28;20036;-63
2022/05/15 13:19:36;;;;;;;2.47;0.70;;;;;;;;;;5052436;28;20048;-63
2022/05/15 13:22:04;;;;;;;2.65;0.77;;;;;;;;;;5052251;28;20114;-63
2022/05/15 13:24:32;;;;;;;3.45;0.80;;;;;;;;;;5051010;28;20037;-63
2022/05/15 13:27:00;;;;;;;2.72;0.80;;;;;;;;;;5053836;28;20041;-63
2022/05/15 13:29:28;;;;;;;4.57;0.80;;;;;;;;;;5050828;28;20041;-64
2022/05/15 13:31:57;;;;;;;2.60;0.80;;;;;;;;;;5051079;28;20413;-64
2022/05/15 13:34:27;;;;;;;5.13;0.90;;;;;;;;;;5050464;28;20044;-63
2022/05/15 13:36:55;;;;;;;3.92;1.00;;;;;;;;;;5052174;28;20044;-63
2022/05/15 13:44:54;;;;;;;2.60;0.82;;;;;;;;;;5052325;28;20401;-63
2022/05/15 13:47:22;;;;;;;2.53;0.77;;;;;;;;;;5051710;28;20049;-63
2022/05/15 13:49:53;;;;;;;5.47;1.20;;;;;;;;;;5052846;28;20044;-63
2022/05/15 13:52:40;;;;;;;2.30;0.60;;;;;;;;;;5050432;28;20041;-63
2022/05/15 13:55:14;;;;;;;8.48;0.90;;;;;;;;;;5052460;28;20127;-64
2022/05/15 13:57:51;;;;;;;3.08;0.70;;;;;;;;;;5051917;28;20551;-63
2022/05/15 14:00:25;;;;;;;6.22;0.88;;;;;;;;;;5051727;28;20040;-63
2022/05/15 14:02:54;;;;;;;3.53;0.85;;;;;;;;;;5051544;28;21797;-63
2022/05/15 14:05:22;;;;;;;6.43;0.90;;;;;;;;;;5052382;28;20033;-63
2022/05/15 14:07:48;;;;;;;2.83;0.88;;;;;;;;;;5053688;28;20036;-63
2022/05/15 14:10:18;;;;;;;2.92;0.90;;;;;;;;;;5052480;28;20029;-63
2022/05/15 14:13:01;;;;;;;2.33;0.70;;;;;;;;;;5052657;28;20056;-63
2022/05/15 14:15:33;;;;;;;2.63;0.55;;;;;;;;;;5051063;28;20040;-63
2022/05/15 14:18:06;;;;;;;3.03;1.00;;;;;;;;;;5054269;28;20497;-63
2022/05/15 14:20:36;;;;;;;2.53;0.70;;;;;;;;;;5051823;28;20294;-65
2022/05/15 14:23:03;;;;;;;2.95;0.80;;;;;;;;;;5054446;28;20045;-64
2022/05/15 14:25:31;;;;;;;2.03;0.50;;;;;;;;;;5052772;28;20110;-64
2022/05/15 14:27:58;;;;;;;2.25;0.70;;;;;;;;;;5054038;28;20543;-64
2022/05/15 14:30:25;;;;;;;3.00;0.65;;;;;;;;;;5053527;28;20051;-64
2022/05/15 14:32:53;;;;;;;3.40;0.60;;;;;;;;;;5053779;28;20040;-63
2022/05/15 14:35:22;;;;;;;2.20;0.52;;;;;;;;;;5052592;28;20033;-64
2022/05/15 14:37:48;;;;;;;5.30;0.70;;;;;;;;;;5052751;28;20089;-63
2022/05/15 14:40:15;;;;;;;2.80;0.68;;;;;;;;;;5053263;28;20047;-63
2022/05/15 14:42:42;;;;;;;2.53;0.52;;;;;;;;;;5050402;28;20341;-65
2022/05/15 14:45:11;;;;;;;1.30;0.50;;;;;;;;;;5052891;28;21728;-66
2022/05/15 14:47:38;;;;;;;2.28;0.63;;;;;;;;;;5055274;28;20585;-66
2022/05/15 14:50:06;;;;;;;1.08;0.40;;;;;;;;;;5055320;28;20094;-65
2022/05/15 14:52:34;;;;;;;1.92;0.60;;;;;;;;;;5037969;28;20572;-64
2022/05/15 14:55:03;;;;;;;2.78;0.70;;;;;;;;;;5057034;28;20040;-64
2022/05/15 14:57:29;;;;;;;0.95;0.40;;;;;;;;;;5054178;28;20048;-63
2022/05/15 14:59:59;;;;;;;1.52;0.50;;;;;;;;;;5057719;28;20041;-65
2022/05/15 15:02:29;;;;;;;1.48;0.55;;;;;;;;;;5056077;28;20551;-64
2022/05/15 15:04:55;;;;;;;3.72;0.85;;;;;;;;;;5057250;28;20063;-65
2022/05/15 15:07:23;;;;;;;1.98;0.47;;;;;;;;;;5055692;28;20063;-65
2022/05/15 15:09:50;;;;;;;1.10;0.40;;;;;;;;;;5054435;28;20040;-65
2022/05/15 15:12:16;;;;;;;2.05;0.50;;;;;;;;;;5053807;28;20045;-64
2022/05/15 15:14:43;;;;;;;1.63;0.57;;;;;;;;;;5056378;28;20036;-64
2022/05/15 15:17:10;;;;;;;2.13;0.60;;;;;;;;;;5055599;28;20036;-65
2022/05/15 15:19:36;;;;;;;1.58;0.50;;;;;;;;;;5054781;28;20053;-65
2022/05/15 15:22:03;;;;;;;1.25;0.50;;;;;;;;;;5055756;28;20037;-65
2022/05/15 15:24:59;;;;;;;3.25;0.60;;;;;;;;;;5040008;28;20040;-65
2022/05/15 15:27:26;;;;;;;1.85;0.55;;;;;;;;;;5044206;28;20044;-65
2022/05/15 15:29:53;;;;;;;2.53;0.52;;;;;;;;;;5056920;28;20037;-65
2022/05/15 15:32:19;;;;;;;3.95;0.60;;;;;;;;;;5054394;28;20048;-64